sensor_id;sensor_type;location;lat;lon;timestamp;P1;durP1;ratioP1;P2;durP2;ratioP2
15536;SDS011;7870;52.448;13.270;2024-01-10T00:01:54;4.63;;;2.70;;
15536;SDS011;7870;52.448;13.270;2024-01-10T00:04:21;5.13;;;2.63;;
15536;SDS011;7870;52.448;13.270;2024-01-10T00:06:47;3.90;;;2.13;;
15536;SDS011;7870;52.448;13.270;2024-01-10T00:09:14;3.55;;;2.30;;
15536;SDS011;7870;52.448;13.270;2024-01-10T00:11:40;4.00;;;2.50;;
15536;SDS011;7870;52.448;13.270;2024-01-10T00:14:07;5.28;;;2.60;;
15536;SDS011;7870;52.448;13.270;2024-01-10T00:16:33;3.58;;;2.42;;
15536;SDS011;7870;52.448;13.270;2024-01-10T00:19:00;5.25;;;2.45;;
15536;SDS011;7870;52.448;13.270;2024-01-10T00:21:27;5.50;;;2.60;;
15536;SDS011;7870;52.448;13.270;2024-01-10T00:23:53;3.63;;;2.03;;
15536;SDS011;7870;52.448;13.270;2024-01-10T00:26:20;4.10;;;2.72;;
15536;SDS011;7870;52.448;13.270;2024-01-10T00:28:47;2.70;;;1.88;;
15536;SDS011;7870;52.448;13.270;2024-01-10T00:31:13;4.25;;;2.17;;
15536;SDS011;7870;52.448;13.270;2024-01-10T00:33:40;4.30;;;2.53;;
15536;SDS011;7870;52.448;13.270;2024-01-10T00:36:07;4.43;;;2.30;;
15536;SDS011;7870;52.448;13.270;2024-01-10T00:38:33;4.35;;;2.40;;
15536;SDS011;7870;52.448;13.270;2024-01-10T00:41:00;3.10;;;2.00;;
15536;SDS011;7870;52.448;13.270;2024-01-10T00:43:27;4.22;;;2.05;;
15536;SDS011;7870;52.448;13.270;2024-01-10T00:45:53;4.43;;;1.95;;
15536;SDS011;7870;52.448;13.270;2024-01-10T00:48:20;3.03;;;2.03;;
15536;SDS011;7870;52.448;13.270;2024-01-10T00:50:46;3.40;;;2.45;;
15536;SDS011;7870;52.448;13.270;2024-01-10T00:53:13;5.43;;;2.47;;
15536;SDS011;7870;52.448;13.270;2024-01-10T00:55:40;4.40;;;1.95;;
15536;SDS011;7870;52.448;13.270;2024-01-10T00:58:07;4.57;;;2.80;;
15536;SDS011;7870;52.448;13.270;2024-01-10T01:00:33;4.35;;;2.45;;
15536;SDS011;7870;52.448;13.270;2024-01-10T01:03:00;3.97;;;2.10;;
15536;SDS011;7870;52.448;13.270;2024-01-10T01:05:26;3.92;;;2.47;;
15536;SDS011;7870;52.448;13.270;2024-01-10T01:07:53;4.20;;;2.13;;
15536;SDS011;7870;52.448;13.270;2024-01-10T01:10:20;4.25;;;2.30;;
15536;SDS011;7870;52.448;13.270;2024-01-10T01:12:46;4.55;;;2.38;;
15536;SDS011;7870;52.448;13.270;2024-01-10T01:15:13;5.32;;;2.33;;
15536;SDS011;7870;52.448;13.270;2024-01-10T01:17:39;3.58;;;1.85;;
15536;SDS011;7870;52.448;13.270;2024-01-10T01:20:06;3.40;;;2.20;;
15536;SDS011;7870;52.448;13.270;2024-01-10T01:22:33;3.97;;;1.90;;
15536;SDS011;7870;52.448;13.270;2024-01-10T01:25:00;2.65;;;2.03;;
15536;SDS011;7870;52.448;13.270;2024-01-10T01:27:26;4.25;;;2.47;;
15536;SDS011;7870;52.448;13.270;2024-01-10T01:29:53;4.03;;;2.33;;
15536;SDS011;7870;52.448;13.270;2024-01-10T01:32:19;3.88;;;1.83;;
15536;SDS011;7870;52.448;13.270;2024-01-10T01:34:46;4.13;;;2.30;;
15536;SDS011;7870;52.448;13.270;2024-01-10T01:37:13;4.88;;;2.47;;
15536;SDS011;7870;52.448;13.270;2024-01-10T01:39:39;4.72;;;2.40;;
15536;SDS011;7870;52.448;13.270;2024-01-10T01:42:06;3.42;;;1.92;;
15536;SDS011;7870;52.448;13.270;2024-01-10T01:44:32;3.65;;;2.10;;
15536;SDS011;7870;52.448;13.270;2024-01-10T01:46:59;3.72;;;2.00;;
15536;SDS011;7870;52.448;13.270;2024-01-10T01:49:25;4.78;;;2.53;;
15536;SDS011;7870;52.448;13.270;2024-01-10T01:51:52;4.03;;;2.53;;
15536;SDS011;7870;52.448;13.270;2024-01-10T01:54:19;5.10;;;2.55;;
15536;SDS011;7870;52.448;13.270;2024-01-10T01:56:46;4.35;;;2.50;;
15536;SDS011;7870;52.448;13.270;2024-01-10T01:59:14;5.63;;;2.47;;
15536;SDS011;7870;52.448;13.270;2024-01-10T02:01:40;5.18;;;2.38;;
15536;SDS011;7870;52.448;13.270;2024-01-10T02:04:07;4.45;;;2.63;;
15536;SDS011;7870;52.448;13.270;2024-01-10T02:06:34;6.47;;;3.13;;
15536;SDS011;7870;52.448;13.270;2024-01-10T02:09:00;4.78;;;2.58;;
15536;SDS011;7870;52.448;13.270;2024-01-10T02:11:27;5.78;;;2.92;;
15536;SDS011;7870;52.448;13.270;2024-01-10T02:13:54;4.55;;;2.50;;
15536;SDS011;7870;52.448;13.270;2024-01-10T02:16:21;5.22;;;2.85;;
15536;SDS011;7870;52.448;13.270;2024-01-10T02:18:49;6.35;;;3.40;;
15536;SDS011;7870;52.448;13.270;2024-01-10T02:21:19;4.05;;;2.60;;
15536;SDS011;7870;52.448;13.270;2024-01-10T02:26:13;4.82;;;2.88;;
15536;SDS011;7870;52.448;13.270;2024-01-10T02:28:41;6.00;;;3.03;;
15536;SDS011;7870;52.448;13.270;2024-01-10T02:31:07;5.05;;;3.08;;
15536;SDS011;7870;52.448;13.270;2024-01-10T02:33:34;4.55;;;2.60;;
15536;SDS011;7870;52.448;13.270;2024-01-10T02:36:01;4.03;;;2.40;;
15536;SDS011;7870;52.448;13.270;2024-01-10T02:38:27;4.55;;;2.53;;
15536;SDS011;7870;52.448;13.270;2024-01-10T02:40:54;6.22;;;3.33;;
15536;SDS011;7870;52.448;13.270;2024-01-10T02:43:22;5.80;;;3.03;;
15536;SDS011;7870;52.448;13.270;2024-01-10T02:45:49;4.15;;;2.67;;
15536;SDS011;7870;52.448;13.270;2024-01-10T02:48:15;6.30;;;3.40;;
15536;SDS011;7870;52.448;13.270;2024-01-10T02:50:42;5.30;;;3.00;;
15536;SDS011;7870;52.448;13.270;2024-01-10T02:53:09;5.57;;;3.08;;
15536;SDS011;7870;52.448;13.270;2024-01-10T02:55:35;5.63;;;2.80;;
15536;SDS011;7870;52.448;13.270;2024-01-10T02:58:02;5.72;;;3.55;;
15536;SDS011;7870;52.448;13.270;2024-01-10T03:00:28;4.13;;;2.53;;
15536;SDS011;7870;52.448;13.270;2024-01-10T03:02:55;6.63;;;3.13;;
15536;SDS011;7870;52.448;13.270;2024-01-10T03:05:21;4.85;;;2.63;;
15536;SDS011;7870;52.448;13.270;2024-01-10T03:07:48;4.40;;;2.45;;
15536;SDS011;7870;52.448;13.270;2024-01-10T03:10:15;4.53;;;2.63;;
15536;SDS011;7870;52.448;13.270;2024-01-10T03:12:41;6.72;;;2.95;;
15536;SDS011;7870;52.448;13.270;2024-01-10T03:15:08;5.32;;;3.05;;
15536;SDS011;7870;52.448;13.270;2024-01-10T03:17:35;4.30;;;2.30;;
15536;SDS011;7870;52.448;13.270;2024-01-10T03:20:02;4.00;;;2.35;;
15536;SDS011;7870;52.448;13.270;2024-01-10T03:22:30;5.38;;;2.55;;
15536;SDS011;7870;52.448;13.270;2024-01-10T03:24:58;6.07;;;2.88;;
15536;SDS011;7870;52.448;13.270;2024-01-10T03:27:24;3.90;;;2.30;;
15536;SDS011;7870;52.448;13.270;2024-01-10T03:29:51;6.70;;;3.20;;
15536;SDS011;7870;52.448;13.270;2024-01-10T03:32:18;4.95;;;2.80;;
15536;SDS011;7870;52.448;13.270;2024-01-10T03:34:44;5.68;;;3.15;;
15536;SDS011;7870;52.448;13.270;2024-01-10T03:37:11;11.18;;;3.38;;
15536;SDS011;7870;52.448;13.270;2024-01-10T03:39:37;6.13;;;3.30;;
15536;SDS011;7870;52.448;13.270;2024-01-10T03:42:04;7.30;;;3.38;;
15536;SDS011;7870;52.448;13.270;2024-01-10T03:44:30;6.10;;;3.03;;
15536;SDS011;7870;52.448;13.270;2024-01-10T03:46:57;5.22;;;2.72;;
15536;SDS011;7870;52.448;13.270;2024-01-10T03:49:24;6.32;;;3.08;;
15536;SDS011;7870;52.448;13.270;2024-01-10T03:51:50;5.32;;;2.60;;
15536;SDS011;7870;52.448;13.270;2024-01-10T03:54:17;4.35;;;2.70;;
15536;SDS011;7870;52.448;13.270;2024-01-10T03:56:43;5.05;;;2.70;;
15536;SDS011;7870;52.448;13.270;2024-01-10T03:59:10;5.50;;;3.10;;
15536;SDS011;7870;52.448;13.270;2024-01-10T04:01:37;5.20;;;2.63;;
15536;SDS011;7870;52.448;13.270;2024-01-10T04:04:05;4.80;;;2.85;;
15536;SDS011;7870;52.448;13.270;2024-01-10T04:06:32;5.85;;;3.10;;
15536;SDS011;7870;52.448;13.270;2024-01-10T04:08:58;5.68;;;2.53;;
15536;SDS011;7870;52.448;13.270;2024-01-10T04:11:25;6.00;;;3.13;;
15536;SDS011;7870;52.448;13.270;2024-01-10T04:13:51;4.22;;;2.35;;
15536;SDS011;7870;52.448;13.270;2024-01-10T04:16:18;4.65;;;2.70;;
15536;SDS011;7870;52.448;13.270;2024-01-10T04:18:45;5.82;;;2.63;;
15536;SDS011;7870;52.448;13.270;2024-01-10T04:21:11;4.78;;;2.67;;
15536;SDS011;7870;52.448;13.270;2024-01-10T04:23:38;6.35;;;2.85;;
15536;SDS011;7870;52.448;13.270;2024-01-10T04:26:05;4.30;;;2.35;;
15536;SDS011;7870;52.448;13.270;2024-01-10T04:28:32;5.63;;;2.50;;
15536;SDS011;7870;52.448;13.270;2024-01-10T04:30:58;5.93;;;2.70;;
15536;SDS011;7870;52.448;13.270;2024-01-10T04:33:25;7.40;;;3.38;;
15536;SDS011;7870;52.448;13.270;2024-01-10T04:35:52;4.63;;;2.88;;
15536;SDS011;7870;52.448;13.270;2024-01-10T04:38:18;5.68;;;2.92;;
15536;SDS011;7870;52.448;13.270;2024-01-10T04:40:45;4.43;;;2.40;;
15536;SDS011;7870;52.448;13.270;2024-01-10T04:43:11;4.43;;;2.45;;
15536;SDS011;7870;52.448;13.270;2024-01-10T04:45:38;4.30;;;3.15;;
15536;SDS011;7870;52.448;13.270;2024-01-10T04:48:05;4.07;;;2.25;;
15536;SDS011;7870;52.448;13.270;2024-01-10T04:50:32;4.05;;;2.47;;
15536;SDS011;7870;52.448;13.270;2024-01-10T04:52:58;4.35;;;2.35;;
15536;SDS011;7870;52.448;13.270;2024-01-10T04:55:25;4.68;;;3.00;;
15536;SDS011;7870;52.448;13.270;2024-01-10T04:57:52;5.57;;;2.63;;
15536;SDS011;7870;52.448;13.270;2024-01-10T05:00:19;5.38;;;2.58;;
15536;SDS011;7870;52.448;13.270;2024-01-10T05:02:46;4.78;;;2.53;;
15536;SDS011;7870;52.448;13.270;2024-01-10T05:05:12;4.97;;;2.42;;
15536;SDS011;7870;52.448;13.270;2024-01-10T05:07:39;5.93;;;3.15;;
15536;SDS011;7870;52.448;13.270;2024-01-10T05:10:06;5.75;;;3.03;;
15536;SDS011;7870;52.448;13.270;2024-01-10T05:12:33;5.78;;;2.85;;
15536;SDS011;7870;52.448;13.270;2024-01-10T05:14:59;8.57;;;3.80;;
15536;SDS011;7870;52.448;13.270;2024-01-10T05:17:26;5.63;;;3.05;;
15536;SDS011;7870;52.448;13.270;2024-01-10T05:19:53;6.10;;;3.08;;
15536;SDS011;7870;52.448;13.270;2024-01-10T05:22:19;6.07;;;2.97;;
15536;SDS011;7870;52.448;13.270;2024-01-10T05:24:48;5.13;;;2.70;;
15536;SDS011;7870;52.448;13.270;2024-01-10T05:27:14;6.57;;;3.38;;
15536;SDS011;7870;52.448;13.270;2024-01-10T05:29:41;5.43;;;3.25;;
15536;SDS011;7870;52.448;13.270;2024-01-10T05:32:07;8.45;;;3.42;;
15536;SDS011;7870;52.448;13.270;2024-01-10T05:34:34;4.72;;;2.55;;
15536;SDS011;7870;52.448;13.270;2024-01-10T05:37:00;4.57;;;2.47;;
15536;SDS011;7870;52.448;13.270;2024-01-10T05:39:27;4.95;;;2.58;;
15536;SDS011;7870;52.448;13.270;2024-01-10T05:41:55;5.55;;;2.95;;
15536;SDS011;7870;52.448;13.270;2024-01-10T05:44:22;4.97;;;3.15;;
15536;SDS011;7870;52.448;13.270;2024-01-10T05:46:49;7.03;;;2.80;;
15536;SDS011;7870;52.448;13.270;2024-01-10T05:49:15;7.05;;;3.38;;
15536;SDS011;7870;52.448;13.270;2024-01-10T05:51:42;5.78;;;2.90;;
15536;SDS011;7870;52.448;13.270;2024-01-10T05:54:08;5.68;;;3.33;;
15536;SDS011;7870;52.448;13.270;2024-01-10T05:56:35;5.55;;;3.10;;
15536;SDS011;7870;52.448;13.270;2024-01-10T05:59:02;5.70;;;3.00;;
15536;SDS011;7870;52.448;13.270;2024-01-10T06:01:28;6.22;;;3.08;;
15536;SDS011;7870;52.448;13.270;2024-01-10T06:03:55;5.28;;;2.75;;
15536;SDS011;7870;52.448;13.270;2024-01-10T06:06:23;7.28;;;3.10;;
15536;SDS011;7870;52.448;13.270;2024-01-10T06:08:49;8.20;;;3.40;;
15536;SDS011;7870;52.448;13.270;2024-01-10T06:11:17;6.50;;;3.40;;
15536;SDS011;7870;52.448;13.270;2024-01-10T06:13:44;3.47;;;2.30;;
15536;SDS011;7870;52.448;13.270;2024-01-10T06:16:19;4.43;;;2.60;;
15536;SDS011;7870;52.448;13.270;2024-01-10T06:18:46;5.30;;;3.13;;
15536;SDS011;7870;52.448;13.270;2024-01-10T06:21:13;5.70;;;2.50;;
15536;SDS011;7870;52.448;13.270;2024-01-10T06:23:40;4.75;;;2.30;;
15536;SDS011;7870;52.448;13.270;2024-01-10T06:26:06;6.03;;;2.90;;
15536;SDS011;7870;52.448;13.270;2024-01-10T06:28:33;6.80;;;2.97;;
15536;SDS011;7870;52.448;13.270;2024-01-10T06:30:59;6.55;;;3.05;;
15536;SDS011;7870;52.448;13.270;2024-01-10T06:33:26;5.55;;;3.00;;
15536;SDS011;7870;52.448;13.270;2024-01-10T06:35:53;5.63;;;3.35;;
15536;SDS011;7870;52.448;13.270;2024-01-10T06:38:21;6.45;;;3.03;;
15536;SDS011;7870;52.448;13.270;2024-01-10T06:40:49;6.72;;;3.10;;
15536;SDS011;7870;52.448;13.270;2024-01-10T06:43:17;6.00;;;3.20;;
15536;SDS011;7870;52.448;13.270;2024-01-10T06:45:43;4.45;;;2.72;;
15536;SDS011;7870;52.448;13.270;2024-01-10T06:48:11;6.68;;;2.97;;
15536;SDS011;7870;52.448;13.270;2024-01-10T06:50:37;5.43;;;3.00;;
15536;SDS011;7870;52.448;13.270;2024-01-10T06:53:04;4.47;;;2.53;;
15536;SDS011;7870;52.448;13.270;2024-01-10T06:55:31;4.47;;;2.45;;
15536;SDS011;7870;52.448;13.270;2024-01-10T06:57:57;7.78;;;3.72;;
15536;SDS011;7870;52.448;13.270;2024-01-10T07:00:24;4.47;;;2.40;;
15536;SDS011;7870;52.448;13.270;2024-01-10T07:02:50;4.43;;;2.70;;
15536;SDS011;7870;52.448;13.270;2024-01-10T07:05:18;5.40;;;2.63;;
15536;SDS011;7870;52.448;13.270;2024-01-10T07:07:46;5.47;;;3.03;;
15536;SDS011;7870;52.448;13.270;2024-01-10T07:10:12;6.95;;;3.60;;
15536;SDS011;7870;52.448;13.270;2024-01-10T07:12:39;6.97;;;3.28;;
15536;SDS011;7870;52.448;13.270;2024-01-10T07:15:06;4.95;;;2.67;;
15536;SDS011;7870;52.448;13.270;2024-01-10T07:17:32;5.60;;;2.95;;
15536;SDS011;7870;52.448;13.270;2024-01-10T07:19:59;5.90;;;3.40;;
15536;SDS011;7870;52.448;13.270;2024-01-10T07:22:26;7.13;;;3.20;;
15536;SDS011;7870;52.448;13.270;2024-01-10T07:24:53;7.30;;;2.90;;
15536;SDS011;7870;52.448;13.270;2024-01-10T07:27:19;4.13;;;2.63;;
15536;SDS011;7870;52.448;13.270;2024-01-10T07:29:46;5.25;;;3.08;;
15536;SDS011;7870;52.448;13.270;2024-01-10T07:32:12;6.13;;;2.88;;
15536;SDS011;7870;52.448;13.270;2024-01-10T07:34:40;4.40;;;2.50;;
15536;SDS011;7870;52.448;13.270;2024-01-10T07:37:07;5.03;;;2.40;;
15536;SDS011;7870;52.448;13.270;2024-01-10T07:39:35;5.13;;;2.70;;
15536;SDS011;7870;52.448;13.270;2024-01-10T07:42:02;5.70;;;2.83;;
15536;SDS011;7870;52.448;13.270;2024-01-10T07:44:29;5.63;;;2.80;;
15536;SDS011;7870;52.448;13.270;2024-01-10T07:46:55;27.48;;;13.93;;
15536;SDS011;7870;52.448;13.270;2024-01-10T07:49:22;45.33;;;23.30;;
15536;SDS011;7870;52.448;13.270;2024-01-10T07:51:50;30.92;;;17.60;;
15536;SDS011;7870;52.448;13.270;2024-01-10T07:54:17;25.45;;;15.32;;
15536;SDS011;7870;52.448;13.270;2024-01-10T07:56:43;25.27;;;13.18;;
15536;SDS011;7870;52.448;13.270;2024-01-10T07:59:10;17.08;;;10.75;;
15536;SDS011;7870;52.448;13.270;2024-01-10T08:01:43;18.25;;;9.63;;
15536;SDS011;7870;52.448;13.270;2024-01-10T08:04:11;18.65;;;9.32;;
15536;SDS011;7870;52.448;13.270;2024-01-10T08:06:41;15.25;;;8.93;;
15536;SDS011;7870;52.448;13.270;2024-01-10T08:09:08;11.55;;;7.47;;
15536;SDS011;7870;52.448;13.270;2024-01-10T08:11:38;13.63;;;7.50;;
15536;SDS011;7870;52.448;13.270;2024-01-10T08:14:04;13.82;;;8.15;;
15536;SDS011;7870;52.448;13.270;2024-01-10T08:16:31;13.00;;;7.07;;
15536;SDS011;7870;52.448;13.270;2024-01-10T08:18:58;10.18;;;6.72;;
15536;SDS011;7870;52.448;13.270;2024-01-10T08:21:25;11.18;;;6.82;;
15536;SDS011;7870;52.448;13.270;2024-01-10T08:23:52;10.30;;;6.47;;
15536;SDS011;7870;52.448;13.270;2024-01-10T08:26:18;10.70;;;6.45;;
15536;SDS011;7870;52.448;13.270;2024-01-10T08:28:45;9.73;;;6.05;;
15536;SDS011;7870;52.448;13.270;2024-01-10T08:31:12;12.35;;;6.32;;
15536;SDS011;7870;52.448;13.270;2024-01-10T08:33:43;10.80;;;6.47;;
15536;SDS011;7870;52.448;13.270;2024-01-10T08:36:09;9.57;;;6.38;;
15536;SDS011;7870;52.448;13.270;2024-01-10T08:38:36;11.55;;;5.85;;
15536;SDS011;7870;52.448;13.270;2024-01-10T08:41:03;7.85;;;5.93;;
15536;SDS011;7870;52.448;13.270;2024-01-10T08:43:30;9.70;;;5.40;;
15536;SDS011;7870;52.448;13.270;2024-01-10T08:45:57;9.25;;;6.18;;
15536;SDS011;7870;52.448;13.270;2024-01-10T08:48:24;7.65;;;4.68;;
15536;SDS011;7870;52.448;13.270;2024-01-10T08:50:50;7.88;;;4.78;;
15536;SDS011;7870;52.448;13.270;2024-01-10T08:53:17;7.95;;;5.47;;
15536;SDS011;7870;52.448;13.270;2024-01-10T08:55:43;6.85;;;4.30;;
15536;SDS011;7870;52.448;13.270;2024-01-10T08:58:10;7.72;;;4.57;;
15536;SDS011;7870;52.448;13.270;2024-01-10T09:00:37;7.80;;;4.38;;
15536;SDS011;7870;52.448;13.270;2024-01-10T09:03:03;6.47;;;4.00;;
15536;SDS011;7870;52.448;13.270;2024-01-10T09:05:30;6.20;;;3.83;;
15536;SDS011;7870;52.448;13.270;2024-01-10T09:07:57;5.95;;;3.95;;
15536;SDS011;7870;52.448;13.270;2024-01-10T09:10:24;6.05;;;3.90;;
15536;SDS011;7870;52.448;13.270;2024-01-10T09:15:21;7.22;;;4.30;;
15536;SDS011;7870;52.448;13.270;2024-01-10T09:17:47;6.85;;;4.30;;
15536;SDS011;7870;52.448;13.270;2024-01-10T09:20:14;6.22;;;4.00;;
15536;SDS011;7870;52.448;13.270;2024-01-10T09:22:41;5.38;;;3.78;;
15536;SDS011;7870;52.448;13.270;2024-01-10T09:25:07;5.20;;;3.65;;
15536;SDS011;7870;52.448;13.270;2024-01-10T09:27:35;6.22;;;3.45;;
15536;SDS011;7870;52.448;13.270;2024-01-10T09:30:02;5.63;;;3.53;;
15536;SDS011;7870;52.448;13.270;2024-01-10T09:32:29;4.75;;;3.20;;
15536;SDS011;7870;52.448;13.270;2024-01-10T09:34:56;5.40;;;3.35;;
15536;SDS011;7870;52.448;13.270;2024-01-10T09:37:22;4.78;;;3.20;;
15536;SDS011;7870;52.448;13.270;2024-01-10T09:39:50;4.85;;;3.47;;
15536;SDS011;7870;52.448;13.270;2024-01-10T09:42:16;4.50;;;3.15;;
15536;SDS011;7870;52.448;13.270;2024-01-10T09:44:43;5.82;;;3.80;;
15536;SDS011;7870;52.448;13.270;2024-01-10T09:47:10;6.88;;;3.65;;
15536;SDS011;7870;52.448;13.270;2024-01-10T09:49:37;5.93;;;3.30;;
15536;SDS011;7870;52.448;13.270;2024-01-10T09:52:04;6.05;;;4.03;;
15536;SDS011;7870;52.448;13.270;2024-01-10T09:54:34;6.22;;;4.40;;
15536;SDS011;7870;52.448;13.270;2024-01-10T09:57:04;6.03;;;3.33;;
15536;SDS011;7870;52.448;13.270;2024-01-10T09:59:32;5.03;;;3.20;;
15536;SDS011;7870;52.448;13.270;2024-01-10T10:02:00;4.78;;;3.22;;
15536;SDS011;7870;52.448;13.270;2024-01-10T10:04:27;4.43;;;3.08;;
15536;SDS011;7870;52.448;13.270;2024-01-10T10:07:00;5.65;;;3.58;;
15536;SDS011;7870;52.448;13.270;2024-01-10T10:09:28;4.18;;;2.83;;
15536;SDS011;7870;52.448;13.270;2024-01-10T10:11:56;5.68;;;3.10;;
15536;SDS011;7870;52.448;13.270;2024-01-10T10:14:24;4.93;;;3.08;;
15536;SDS011;7870;52.448;13.270;2024-01-10T10:16:52;6.50;;;3.72;;
15536;SDS011;7870;52.448;13.270;2024-01-10T10:19:23;5.88;;;3.55;;
15536;SDS011;7870;52.448;13.270;2024-01-10T10:22:08;5.13;;;3.22;;
15536;SDS011;7870;52.448;13.270;2024-01-10T10:24:38;4.38;;;3.05;;
15536;SDS011;7870;52.448;13.270;2024-01-10T10:27:08;4.47;;;2.60;;
15536;SDS011;7870;52.448;13.270;2024-01-10T10:29:38;4.82;;;3.13;;
15536;SDS011;7870;52.448;13.270;2024-01-10T10:32:05;5.03;;;3.03;;
15536;SDS011;7870;52.448;13.270;2024-01-10T10:34:33;5.45;;;3.28;;
15536;SDS011;7870;52.448;13.270;2024-01-10T10:37:00;4.68;;;2.95;;
15536;SDS011;7870;52.448;13.270;2024-01-10T10:39:27;5.75;;;3.50;;
15536;SDS011;7870;52.448;13.270;2024-01-10T10:41:53;4.47;;;3.20;;
15536;SDS011;7870;52.448;13.270;2024-01-10T10:44:23;5.00;;;3.30;;
15536;SDS011;7870;52.448;13.270;2024-01-10T10:46:52;4.47;;;2.92;;
15536;SDS011;7870;52.448;13.270;2024-01-10T10:49:36;5.20;;;3.25;;
15536;SDS011;7870;52.448;13.270;2024-01-10T10:52:11;5.30;;;2.90;;
15536;SDS011;7870;52.448;13.270;2024-01-10T10:54:38;5.80;;;3.65;;
15536;SDS011;7870;52.448;13.270;2024-01-10T10:57:05;6.20;;;3.90;;
15536;SDS011;7870;52.448;13.270;2024-01-10T10:59:32;7.07;;;3.30;;
15536;SDS011;7870;52.448;13.270;2024-01-10T11:02:00;5.20;;;2.95;;
15536;SDS011;7870;52.448;13.270;2024-01-10T11:04:27;6.47;;;3.65;;
15536;SDS011;7870;52.448;13.270;2024-01-10T11:06:54;4.95;;;3.15;;
15536;SDS011;7870;52.448;13.270;2024-01-10T11:09:21;5.72;;;3.67;;
15536;SDS011;7870;52.448;13.270;2024-01-10T11:12:06;4.18;;;3.03;;
15536;SDS011;7870;52.448;13.270;2024-01-10T11:18:06;4.43;;;2.50;;
15536;SDS011;7870;52.448;13.270;2024-01-10T11:20:51;4.72;;;2.88;;
15536;SDS011;7870;52.448;13.270;2024-01-10T11:26:05;4.25;;;2.85;;
15536;SDS011;7870;52.448;13.270;2024-01-10T11:28:33;4.38;;;2.58;;
15536;SDS011;7870;52.448;13.270;2024-01-10T11:31:00;4.25;;;2.88;;
15536;SDS011;7870;52.448;13.270;2024-01-10T11:33:31;6.90;;;3.30;;
15536;SDS011;7870;52.448;13.270;2024-01-10T11:36:05;4.10;;;2.85;;
15536;SDS011;7870;52.448;13.270;2024-01-10T11:46:47;4.28;;;2.50;;
15536;SDS011;7870;52.448;13.270;2024-01-10T11:49:15;3.63;;;2.10;;
15536;SDS011;7870;52.448;13.270;2024-01-10T11:51:44;4.40;;;2.72;;
15536;SDS011;7870;52.448;13.270;2024-01-10T11:54:34;5.78;;;2.90;;
15536;SDS011;7870;52.448;13.270;2024-01-10T11:57:08;4.30;;;2.22;;
15536;SDS011;7870;52.448;13.270;2024-01-10T11:59:55;4.88;;;2.85;;
15536;SDS011;7870;52.448;13.270;2024-01-10T12:02:22;4.72;;;2.75;;
15536;SDS011;7870;52.448;13.270;2024-01-10T12:04:51;5.53;;;2.00;;
15536;SDS011;7870;52.448;13.270;2024-01-10T12:07:18;4.82;;;2.80;;
15536;SDS011;7870;52.448;13.270;2024-01-10T12:09:46;4.07;;;2.70;;
15536;SDS011;7870;52.448;13.270;2024-01-10T12:12:13;4.40;;;2.60;;
15536;SDS011;7870;52.448;13.270;2024-01-10T12:14:40;4.13;;;2.78;;
15536;SDS011;7870;52.448;13.270;2024-01-10T12:17:07;4.20;;;2.10;;
15536;SDS011;7870;52.448;13.270;2024-01-10T12:19:35;3.67;;;2.40;;
15536;SDS011;7870;52.448;13.270;2024-01-10T12:22:04;3.60;;;2.30;;
15536;SDS011;7870;52.448;13.270;2024-01-10T12:24:33;3.78;;;2.42;;
15536;SDS011;7870;52.448;13.270;2024-01-10T12:27:00;5.40;;;3.00;;
15536;SDS011;7870;52.448;13.270;2024-01-10T12:29:26;5.03;;;3.20;;
15536;SDS011;7870;52.448;13.270;2024-01-10T12:31:53;4.65;;;2.60;;
15536;SDS011;7870;52.448;13.270;2024-01-10T12:34:20;4.70;;;2.83;;
15536;SDS011;7870;52.448;13.270;2024-01-10T12:36:48;4.13;;;2.22;;
15536;SDS011;7870;52.448;13.270;2024-01-10T12:39:15;5.55;;;2.97;;
15536;SDS011;7870;52.448;13.270;2024-01-10T12:41:43;3.72;;;2.42;;
15536;SDS011;7870;52.448;13.270;2024-01-10T12:44:10;5.13;;;2.85;;
15536;SDS011;7870;52.448;13.270;2024-01-10T12:46:48;3.38;;;2.33;;
15536;SDS011;7870;52.448;13.270;2024-01-10T12:49:16;3.70;;;2.20;;
15536;SDS011;7870;52.448;13.270;2024-01-10T12:51:43;3.63;;;2.40;;
15536;SDS011;7870;52.448;13.270;2024-01-10T12:54:10;4.25;;;2.58;;
15536;SDS011;7870;52.448;13.270;2024-01-10T12:56:36;3.92;;;2.55;;
15536;SDS011;7870;52.448;13.270;2024-01-10T12:59:03;2.75;;;1.77;;
15536;SDS011;7870;52.448;13.270;2024-01-10T13:01:30;3.15;;;2.08;;
15536;SDS011;7870;52.448;13.270;2024-01-10T13:03:57;3.63;;;2.28;;
15536;SDS011;7870;52.448;13.270;2024-01-10T13:06:24;3.83;;;2.58;;
15536;SDS011;7870;52.448;13.270;2024-01-10T13:08:51;5.55;;;2.70;;
15536;SDS011;7870;52.448;13.270;2024-01-10T13:11:18;3.95;;;2.20;;
15536;SDS011;7870;52.448;13.270;2024-01-10T13:13:46;3.65;;;1.92;;
15536;SDS011;7870;52.448;13.270;2024-01-10T13:16:13;3.55;;;2.08;;
15536;SDS011;7870;52.448;13.270;2024-01-10T13:18:40;3.90;;;2.25;;
15536;SDS011;7870;52.448;13.270;2024-01-10T13:21:06;4.05;;;2.17;;
15536;SDS011;7870;52.448;13.270;2024-01-10T13:23:34;3.58;;;2.13;;
15536;SDS011;7870;52.448;13.270;2024-01-10T13:26:01;3.45;;;2.33;;
15536;SDS011;7870;52.448;13.270;2024-01-10T13:28:27;3.10;;;1.83;;
15536;SDS011;7870;52.448;13.270;2024-01-10T13:30:54;3.40;;;1.83;;
15536;SDS011;7870;52.448;13.270;2024-01-10T13:33:22;3.88;;;2.30;;
15536;SDS011;7870;52.448;13.270;2024-01-10T13:35:49;5.50;;;2.40;;
15536;SDS011;7870;52.448;13.270;2024-01-10T13:38:16;4.38;;;2.13;;
15536;SDS011;7870;52.448;13.270;2024-01-10T13:40:43;3.10;;;2.00;;
15536;SDS011;7870;52.448;13.270;2024-01-10T13:43:09;3.22;;;1.77;;
15536;SDS011;7870;52.448;13.270;2024-01-10T13:45:37;4.13;;;1.98;;
15536;SDS011;7870;52.448;13.270;2024-01-10T13:48:05;3.85;;;2.13;;
15536;SDS011;7870;52.448;13.270;2024-01-10T13:50:32;3.05;;;1.92;;
15536;SDS011;7870;52.448;13.270;2024-01-10T13:52:59;3.03;;;1.70;;
15536;SDS011;7870;52.448;13.270;2024-01-10T13:55:26;4.10;;;1.65;;
15536;SDS011;7870;52.448;13.270;2024-01-10T13:57:52;3.42;;;2.03;;
15536;SDS011;7870;52.448;13.270;2024-01-10T14:00:19;3.40;;;2.17;;
15536;SDS011;7870;52.448;13.270;2024-01-10T14:02:46;3.30;;;1.92;;
15536;SDS011;7870;52.448;13.270;2024-01-10T14:05:13;3.55;;;1.90;;
15536;SDS011;7870;52.448;13.270;2024-01-10T14:07:40;3.28;;;1.92;;
15536;SDS011;7870;52.448;13.270;2024-01-10T14:10:10;3.50;;;2.10;;
15536;SDS011;7870;52.448;13.270;2024-01-10T14:12:37;3.35;;;2.10;;
15536;SDS011;7870;52.448;13.270;2024-01-10T14:15:04;2.97;;;1.90;;
15536;SDS011;7870;52.448;13.270;2024-01-10T14:17:31;5.10;;;2.92;;
15536;SDS011;7870;52.448;13.270;2024-01-10T14:19:58;4.05;;;2.42;;
15536;SDS011;7870;52.448;13.270;2024-01-10T14:22:24;5.13;;;2.25;;
15536;SDS011;7870;52.448;13.270;2024-01-10T14:24:58;4.82;;;2.60;;
15536;SDS011;7870;52.448;13.270;2024-01-10T14:27:28;3.97;;;2.28;;
15536;SDS011;7870;52.448;13.270;2024-01-10T14:29:54;3.47;;;2.00;;
15536;SDS011;7870;52.448;13.270;2024-01-10T14:32:21;3.78;;;2.05;;
15536;SDS011;7870;52.448;13.270;2024-01-10T14:34:49;3.08;;;2.10;;
15536;SDS011;7870;52.448;13.270;2024-01-10T14:37:16;4.05;;;2.05;;
15536;SDS011;7870;52.448;13.270;2024-01-10T14:39:42;3.92;;;1.88;;
15536;SDS011;7870;52.448;13.270;2024-01-10T14:42:09;2.72;;;1.88;;
15536;SDS011;7870;52.448;13.270;2024-01-10T14:44:36;3.60;;;2.15;;
15536;SDS011;7870;52.448;13.270;2024-01-10T14:47:02;2.70;;;1.80;;
15536;SDS011;7870;52.448;13.270;2024-01-10T14:49:37;2.97;;;2.10;;
15536;SDS011;7870;52.448;13.270;2024-01-10T14:52:04;3.47;;;1.95;;
15536;SDS011;7870;52.448;13.270;2024-01-10T14:54:31;2.72;;;1.60;;
15536;SDS011;7870;52.448;13.270;2024-01-10T14:56:58;2.42;;;1.40;;
15536;SDS011;7870;52.448;13.270;2024-01-10T14:59:25;3.63;;;1.55;;
15536;SDS011;7870;52.448;13.270;2024-01-10T15:02:09;3.60;;;1.70;;
15536;SDS011;7870;52.448;13.270;2024-01-10T15:04:36;2.70;;;1.60;;
15536;SDS011;7870;52.448;13.270;2024-01-10T15:07:04;3.08;;;1.50;;